createdAt,value
2017-11-18T00:01:34.653Z,74.50
2017-11-18T00:04:02.108Z,74.20
2017-11-18T00:06:29.566Z,75.20
2017-11-18T00:08:57.036Z,75.40
2017-11-18T00:11:24.527Z,75.60
2017-11-18T00:13:52.025Z,74.70
2017-11-18T00:16:20.265Z,74.10
2017-11-18T00:18:47.701Z,74.00
2017-11-18T00:21:15.172Z,74.40
2017-11-18T00:23:42.619Z,73.60
2017-11-18T00:26:10.082Z,74.00
2017-11-18T00:28:37.531Z,74.90
2017-11-18T00:31:04.964Z,74.80
2017-11-18T00:33:32.412Z,74.50
2017-11-18T00:35:59.884Z,74.50
2017-11-18T00:38:27.348Z,75.30
2017-11-18T00:40:54.811Z,76.10
2017-11-18T00:43:22.247Z,75.80
2017-11-18T00:45:49.719Z,76.60
2017-11-18T00:48:17.211Z,76.00
2017-11-18T00:50:44.654Z,76.90
2017-11-18T00:53:12.109Z,76.90
2017-11-18T00:55:39.570Z,76.60
2017-11-18T00:58:07.031Z,77.10
2017-11-18T01:00:34.612Z,77.80
2017-11-18T01:03:02.054Z,77.70
2017-11-18T01:05:29.519Z,77.70
2017-11-18T01:07:56.980Z,77.50
2017-11-18T01:10:24.438Z,77.30
2017-11-18T01:12:51.885Z,79.10
2017-11-18T01:15:19.343Z,79.40
2017-11-18T01:17:46.806Z,79.80
2017-11-18T01:20:14.271Z,79.80
2017-11-18T01:22:41.924Z,78.20
2017-11-18T01:25:09.371Z,80.20
2017-11-18T01:27:36.825Z,79.40
2017-11-18T01:30:04.302Z,80.10
2017-11-18T01:32:31.762Z,79.70
2017-11-18T01:34:59.232Z,79.50
2017-11-18T01:37:26.693Z,80.00
2017-11-18T01:39:54.139Z,80.20
2017-11-18T01:42:21.574Z,80.70
2017-11-18T01:44:49.000Z,81.60
2017-11-18T01:47:16.431Z,81.00
2017-11-18T01:49:44.642Z,80.80
2017-11-18T01:52:12.087Z,80.70
2017-11-18T01:54:39.559Z,81.20
2017-11-18T01:57:07.036Z,81.90
2017-11-18T01:59:34.831Z,82.20
2017-11-18T02:02:02.890Z,82.40
2017-11-18T02:04:30.348Z,82.00
2017-11-18T02:06:57.806Z,82.10
2017-11-18T02:09:25.247Z,82.00
2017-11-18T02:11:52.684Z,82.10
2017-11-18T02:14:20.131Z,82.10
2017-11-18T02:16:47.578Z,82.10
2017-11-18T02:19:15.770Z,82.70
2017-11-18T02:21:43.207Z,82.60
2017-11-18T02:24:10.662Z,82.40
2017-11-18T02:26:38.129Z,83.30
2017-11-18T02:29:06.137Z,83.40
2017-11-18T02:31:33.576Z,83.10
2017-11-18T02:34:01.019Z,82.50
2017-11-18T02:36:28.478Z,82.20
2017-11-18T02:38:55.956Z,82.60
2017-11-18T02:41:23.395Z,82.50
2017-11-18T02:43:51.182Z,83.70
2017-11-18T02:46:18.614Z,83.00
2017-11-18T02:48:46.104Z,83.20
2017-11-18T02:51:13.559Z,83.50
2017-11-18T02:53:41.011Z,83.40
2017-11-18T02:56:08.483Z,83.50
2017-11-18T02:58:35.918Z,83.50
2017-11-18T03:01:03.395Z,83.50
2017-11-18T03:03:30.851Z,82.80
2017-11-18T03:05:59.453Z,83.40
2017-11-18T03:08:26.915Z,84.00
2017-11-18T03:10:54.343Z,83.90
2017-11-18T03:13:21.798Z,83.40
2017-11-18T03:15:49.275Z,82.70
2017-11-18T03:18:16.710Z,83.20
2017-11-18T03:20:44.184Z,83.30
2017-11-18T03:23:11.631Z,83.30
2017-11-18T03:25:39.098Z,82.80
2017-11-18T03:28:06.574Z,82.20
2017-11-18T03:30:34.932Z,83.00
2017-11-18T03:33:02.480Z,82.90
2017-11-18T03:35:29.936Z,82.70
2017-11-18T03:37:57.394Z,82.60
2017-11-18T03:40:24.854Z,82.40
2017-11-18T03:42:52.329Z,82.20
2017-11-18T03:45:20.279Z,82.20
2017-11-18T03:47:48.697Z,82.30
2017-11-18T03:50:16.146Z,82.30
2017-11-18T03:52:43.618Z,81.80
2017-11-18T03:55:11.068Z,82.00
2017-11-18T03:57:38.519Z,82.60
2017-11-18T04:00:06.000Z,82.10
2017-11-18T04:02:33.434Z,82.10
2017-11-18T04:05:00.889Z,80.90
2017-11-18T04:07:28.991Z,82.00
2017-11-18T04:09:56.473Z,82.30
2017-11-18T04:12:24.737Z,81.60
2017-11-18T04:14:52.178Z,81.60
2017-11-18T04:17:20.387Z,80.70
2017-11-18T04:19:47.829Z,80.60
2017-11-18T04:22:16.065Z,82.10
2017-11-18T04:24:43.522Z,82.00
2017-11-18T04:27:10.978Z,81.80
2017-11-18T04:29:39.155Z,81.70
2017-11-18T04:32:06.579Z,81.30
2017-11-18T04:34:34.931Z,81.50
2017-11-18T04:37:03.827Z,82.90
2017-11-18T04:39:31.272Z,82.90
2017-11-18T04:42:00.391Z,83.70
2017-11-18T04:44:27.839Z,83.70
2017-11-18T04:46:55.307Z,83.00
2017-11-18T04:49:23.547Z,82.90
2017-11-18T04:51:50.998Z,82.90
2017-11-18T04:54:18.459Z,83.20
2017-11-18T04:56:46.471Z,83.70
2017-11-18T04:59:13.914Z,83.10
2017-11-18T05:01:42.124Z,83.80
2017-11-18T05:04:10.636Z,83.70
2017-11-18T05:06:38.257Z,83.80
2017-11-18T05:09:05.693Z,83.40
2017-11-18T05:11:33.177Z,82.20
2017-11-18T05:14:00.618Z,82.40
2017-11-18T05:16:28.076Z,82.60
2017-11-18T05:18:55.532Z,82.50
2017-11-18T05:21:22.990Z,83.10
2017-11-18T05:23:50.457Z,82.70
2017-11-18T05:26:17.935Z,82.40
2017-11-18T05:28:45.376Z,81.60
2017-11-18T05:31:12.851Z,82.10
2017-11-18T05:33:40.298Z,80.80
2017-11-18T05:36:07.775Z,80.10
2017-11-18T05:38:35.213Z,78.30
2017-11-18T05:41:02.666Z,78.60
2017-11-18T05:43:30.129Z,79.20
2017-11-18T05:45:57.590Z,78.60
2017-11-18T05:48:25.057Z,78.00
2017-11-18T05:50:52.505Z,77.60
2017-11-18T05:53:20.772Z,77.50
2017-11-18T05:55:48.229Z,77.30
2017-11-18T05:58:15.691Z,78.50
2017-11-18T06:00:43.159Z,78.50
2017-11-18T06:03:10.621Z,78.80
2017-11-18T06:05:38.112Z,78.40
2017-11-18T06:08:05.568Z,78.60
2017-11-18T06:10:33.011Z,78.00
2017-11-18T06:13:00.455Z,77.50
2017-11-18T06:15:27.906Z,77.50
2017-11-18T06:17:55.367Z,77.20
2017-11-18T06:20:22.831Z,77.00
2017-11-18T06:22:50.291Z,76.50
2017-11-18T06:25:17.772Z,76.70
2017-11-18T06:27:45.209Z,76.90
2017-11-18T06:30:12.668Z,77.20
2017-11-18T06:32:40.095Z,77.20
2017-11-18T06:35:07.580Z,76.70
2017-11-18T06:37:35.335Z,76.80
2017-11-18T06:40:02.804Z,76.60
2017-11-18T06:42:30.266Z,76.40
2017-11-18T06:44:57.730Z,76.80
2017-11-18T06:47:25.190Z,76.60
2017-11-18T06:49:52.667Z,76.90
2017-11-18T06:52:20.121Z,76.80
2017-11-18T06:54:47.570Z,75.10
2017-11-18T06:57:15.010Z,75.80
2017-11-18T06:59:42.476Z,76.60
2017-11-18T07:02:09.932Z,76.90
2017-11-18T07:04:37.377Z,76.80
2017-11-18T07:07:04.843Z,75.80
2017-11-18T07:09:32.295Z,76.50
2017-11-18T07:11:59.761Z,76.60
2017-11-18T07:14:27.197Z,76.70
2017-11-18T07:16:54.702Z,75.00
2017-11-18T07:19:22.163Z,76.00
2017-11-18T07:21:50.380Z,76.60
2017-11-18T07:24:17.822Z,76.60
2017-11-18T07:26:45.273Z,75.60
2017-11-18T07:29:12.713Z,76.30
2017-11-18T07:31:40.970Z,76.60
2017-11-18T07:34:08.440Z,76.50
2017-11-18T07:36:35.910Z,76.90
2017-11-18T07:39:04.091Z,77.00
2017-11-18T07:41:31.552Z,76.90
2017-11-18T07:43:59.014Z,77.50
2017-11-18T07:46:26.482Z,77.50
2017-11-18T07:48:53.959Z,77.80
2017-11-18T07:51:21.387Z,78.10
2017-11-18T07:53:48.850Z,79.10
2017-11-18T07:56:16.403Z,78.30
2017-11-18T07:58:43.901Z,78.40
2017-11-18T08:01:11.337Z,77.60
2017-11-18T08:03:38.759Z,77.00
2017-11-18T08:06:06.969Z,77.10
2017-11-18T08:08:36.089Z,78.70
2017-11-18T08:11:03.547Z,78.70
2017-11-18T08:13:31.049Z,79.00
2017-11-18T08:15:58.500Z,78.20
2017-11-18T08:18:25.918Z,77.30
2017-11-18T08:20:55.242Z,77.90
2017-11-18T08:23:22.677Z,78.00
2017-11-18T08:25:50.114Z,77.30
2017-11-18T08:28:17.557Z,76.80
2017-11-18T08:30:45.076Z,76.80
2017-11-18T08:33:12.563Z,76.60
2017-11-18T08:35:40.810Z,77.30
2017-11-18T08:38:08.230Z,77.20
2017-11-18T08:40:36.516Z,76.60
2017-11-18T08:43:03.986Z,76.30
2017-11-18T08:45:31.435Z,77.80
2017-11-18T08:47:58.906Z,77.30
2017-11-18T08:50:26.364Z,76.90
2017-11-18T08:52:53.895Z,77.70
2017-11-18T08:55:21.360Z,76.60
2017-11-18T08:57:48.884Z,76.50
2017-11-18T09:00:17.098Z,76.80
2017-11-18T09:02:44.570Z,76.70
2017-11-18T09:05:12.104Z,77.50
2017-11-18T09:07:39.598Z,76.40
2017-11-18T09:10:07.070Z,76.40
2017-11-18T09:12:34.540Z,77.00
2017-11-18T09:15:02.807Z,78.00
2017-11-18T09:17:30.286Z,77.90
2017-11-18T09:19:57.716Z,77.60
2017-11-18T09:22:25.176Z,76.90
2017-11-18T09:24:52.605Z,77.30
2017-11-18T09:27:20.051Z,77.20
2017-11-18T09:29:47.607Z,78.10
2017-11-18T09:32:15.065Z,79.50
2017-11-18T09:34:42.495Z,79.30
2017-11-18T09:37:10.724Z,78.50
2017-11-18T09:39:38.199Z,78.50
2017-11-18T09:42:05.649Z,78.80
2017-11-18T09:44:33.067Z,78.70
2017-11-18T09:47:00.540Z,79.30
2017-11-18T09:49:27.982Z,79.90
2017-11-18T09:51:55.420Z,79.90
2017-11-18T09:54:22.848Z,79.20
2017-11-18T09:56:51.128Z,81.20
2017-11-18T09:59:19.370Z,80.50
2017-11-18T10:01:46.778Z,80.50
2017-11-18T10:04:14.219Z,79.90
2017-11-18T10:06:42.409Z,78.40
2017-11-18T10:09:09.867Z,78.40
2017-11-18T10:11:38.479Z,79.30
2017-11-18T10:14:05.913Z,79.20
2017-11-18T10:16:33.376Z,80.00
2017-11-18T10:19:01.731Z,79.90
2017-11-18T10:21:29.927Z,80.00
2017-11-18T10:23:57.384Z,80.00
2017-11-18T10:26:24.837Z,80.40
2017-11-18T10:28:52.317Z,80.90
2017-11-18T10:31:19.778Z,80.90
2017-11-18T10:33:47.223Z,80.10
2017-11-18T10:36:14.662Z,80.60
2017-11-18T10:38:42.125Z,79.60
2017-11-18T10:41:10.299Z,81.60
2017-11-18T10:43:37.765Z,81.60
2017-11-18T10:46:05.223Z,81.00
2017-11-18T10:48:32.674Z,80.60
2017-11-18T10:51:00.143Z,80.10
2017-11-18T10:53:27.596Z,80.00
2017-11-18T10:55:55.056Z,80.60
2017-11-18T10:58:22.523Z,80.20
2017-11-18T11:00:49.986Z,81.10
2017-11-18T11:03:17.463Z,80.70
2017-11-18T11:05:44.939Z,77.80
2017-11-18T11:08:12.375Z,76.20
2017-11-18T11:10:40.599Z,75.80
2017-11-18T11:13:09.750Z,77.10
2017-11-18T11:15:37.199Z,77.10
2017-11-18T11:18:04.650Z,77.90
2017-11-18T11:20:32.107Z,78.40
2017-11-18T11:22:59.564Z,78.20
2017-11-18T11:25:26.998Z,77.40
2017-11-18T11:27:54.499Z,76.80
2017-11-18T11:30:22.585Z,76.50
2017-11-18T11:32:50.034Z,77.20
2017-11-18T11:35:17.474Z,77.40
2017-11-18T11:37:44.937Z,78.20
2017-11-18T11:40:12.402Z,77.00
2017-11-18T11:42:39.833Z,75.20
2017-11-18T11:45:07.795Z,74.30
2017-11-18T11:47:36.038Z,74.50
2017-11-18T11:50:03.468Z,75.00
2017-11-18T11:52:31.002Z,75.80
2017-11-18T11:54:58.425Z,75.30
2017-11-18T11:57:26.653Z,75.40
2017-11-18T11:59:54.114Z,75.40
2017-11-18T12:02:21.569Z,74.60
2017-11-18T12:04:49.007Z,75.50
2017-11-18T12:07:16.462Z,75.60
2017-11-18T12:09:43.922Z,78.00
2017-11-18T12:12:11.363Z,77.60
2017-11-18T12:14:38.822Z,76.20
2017-11-18T12:17:06.247Z,75.90
2017-11-18T12:19:35.177Z,75.10
2017-11-18T12:22:02.622Z,75.00
2017-11-18T12:24:31.043Z,75.30
2017-11-18T12:26:58.478Z,74.50
2017-11-18T12:29:26.027Z,72.70
2017-11-18T12:31:53.503Z,72.50
2017-11-18T12:34:20.947Z,71.30
2017-11-18T12:36:48.390Z,72.80
2017-11-18T12:39:15.871Z,72.50
2017-11-18T12:41:43.330Z,76.00
2017-11-18T12:44:10.787Z,75.40
2017-11-18T12:46:38.242Z,75.20
2017-11-18T12:49:05.706Z,75.50
2017-11-18T12:51:33.166Z,74.10
2017-11-18T12:54:00.831Z,74.30
2017-11-18T12:56:31.112Z,70.00
2017-11-18T12:58:59.448Z,65.80
2017-11-18T13:01:28.191Z,65.80
2017-11-18T13:03:56.642Z,65.90
2017-11-18T13:06:24.062Z,66.00
2017-11-18T13:08:51.640Z,66.20
2017-11-18T13:11:19.083Z,66.60
2017-11-18T13:13:46.636Z,68.10
2017-11-18T13:16:14.121Z,69.20
2017-11-18T13:18:41.579Z,71.30
2017-11-18T13:21:09.847Z,72.60
2017-11-18T13:23:37.306Z,73.30
2017-11-18T13:26:04.750Z,73.70
2017-11-18T13:28:32.193Z,73.60
2017-11-18T13:31:05.122Z,73.60
2017-11-18T13:33:32.574Z,73.70
2017-11-18T13:36:05.812Z,74.20
2017-11-18T13:41:09.744Z,76.50
2017-11-18T13:43:37.962Z,77.50
2017-11-18T13:46:05.421Z,77.50
2017-11-18T13:48:32.867Z,77.60
2017-11-18T13:51:00.323Z,79.40
2017-11-18T13:53:27.799Z,79.30
2017-11-18T13:55:55.261Z,80.20
2017-11-18T13:58:22.757Z,81.10
2017-11-18T14:00:50.978Z,82.50
2017-11-18T14:03:18.443Z,81.60
2017-11-18T14:05:45.926Z,81.80
2017-11-18T14:08:14.171Z,80.20
2017-11-18T14:10:41.642Z,80.10
2017-11-18T14:13:09.120Z,78.90
2017-11-18T14:15:37.318Z,79.40
2017-11-18T14:18:04.763Z,79.40
2017-11-18T14:20:33.924Z,81.40
2017-11-18T14:23:01.399Z,81.40
2017-11-18T14:25:28.838Z,83.20
2017-11-18T14:27:56.263Z,82.90
2017-11-18T14:30:23.703Z,82.10
2017-11-18T14:32:51.158Z,82.70
2017-11-18T14:35:19.380Z,83.30
2017-11-18T14:37:46.809Z,83.30
2017-11-18T14:40:14.249Z,83.60
2017-11-18T14:42:41.723Z,84.90
2017-11-18T14:45:09.172Z,84.30
2017-11-18T14:47:36.606Z,84.80
2017-11-18T14:50:04.816Z,87.50
2017-11-18T14:52:32.317Z,87.40
2017-11-18T14:55:00.431Z,90.20
2017-11-18T14:57:27.894Z,90.80
2017-11-18T14:59:55.362Z,92.30
2017-11-18T15:02:22.798Z,91.60
2017-11-18T15:04:50.283Z,91.60
2017-11-18T15:07:17.764Z,92.10
2017-11-18T15:09:45.209Z,91.30
2017-11-18T15:12:12.641Z,91.30
2017-11-18T15:14:40.890Z,91.30
2017-11-18T15:17:14.719Z,91.40
2017-11-18T15:19:47.787Z,91.40
2017-11-18T15:25:23.604Z,90.90
2017-11-18T15:27:56.667Z,91.70
2017-11-18T15:33:25.415Z,91.50
2017-11-18T15:36:02.764Z,91.50
2017-11-18T15:38:45.117Z,91.40
2017-11-18T15:41:12.561Z,90.70
2017-11-18T15:43:39.994Z,91.20
2017-11-18T15:46:08.343Z,91.50
2017-11-18T15:48:42.210Z,92.10
2017-11-18T15:51:10.083Z,92.40
2017-11-18T15:53:43.263Z,91.50
2017-11-18T15:56:25.594Z,91.70
2017-11-18T15:58:55.616Z,91.90
2017-11-18T16:01:28.879Z,92.60
2017-11-18T16:04:01.497Z,92.20
2017-11-18T16:06:34.674Z,91.90
2017-11-18T16:09:02.135Z,91.40
2017-11-18T16:11:29.579Z,90.90
2017-11-18T16:13:57.019Z,92.10
2017-11-18T16:16:24.487Z,93.10
2017-11-18T16:18:51.942Z,93.50
2017-11-18T16:21:19.421Z,94.20
2017-11-18T16:23:46.882Z,94.80
2017-11-18T16:26:14.323Z,94.70
2017-11-18T16:28:41.783Z,94.40
2017-11-18T16:31:09.253Z,94.60
2017-11-18T16:33:36.715Z,95.10
2017-11-18T16:36:04.175Z,95.30
2017-11-18T16:38:32.370Z,95.40
2017-11-18T16:41:01.353Z,95.70
2017-11-18T16:43:28.810Z,95.30
2017-11-18T16:45:57.142Z,95.70
2017-11-18T16:48:24.607Z,95.70
2017-11-18T16:50:52.072Z,95.40
2017-11-18T16:53:19.529Z,95.50
2017-11-18T16:55:46.985Z,95.10
2017-11-18T16:58:14.490Z,95.00
2017-11-18T17:00:42.727Z,95.70
2017-11-18T17:03:10.210Z,95.70
2017-11-18T17:05:37.642Z,95.80
2017-11-18T17:08:05.130Z,95.60
2017-11-18T17:10:32.562Z,95.50
2017-11-18T17:13:00.029Z,95.00
2017-11-18T17:15:27.484Z,94.80
2017-11-18T17:17:54.945Z,94.80
2017-11-18T17:20:22.398Z,94.60
2017-11-18T17:22:49.870Z,95.30
2017-11-18T17:25:17.324Z,95.70
2017-11-18T17:27:44.802Z,95.50
2017-11-18T17:30:12.244Z,95.30
2017-11-18T17:32:39.671Z,95.20
2017-11-18T17:35:07.135Z,94.70
2017-11-18T17:37:34.601Z,94.20
2017-11-18T17:40:02.067Z,93.60
2017-11-18T17:42:29.742Z,93.30
2017-11-18T17:44:57.346Z,92.90
2017-11-18T17:47:24.966Z,93.60
2017-11-18T17:50:04.663Z,93.60
2017-11-18T17:52:37.620Z,93.50
2017-11-18T17:55:06.542Z,93.50
2017-11-18T17:57:40.091Z,93.50
2017-11-18T18:00:07.561Z,93.50
2017-11-18T18:02:37.140Z,95.00
2017-11-18T18:05:04.546Z,95.00
2017-11-18T18:07:31.991Z,95.40
2017-11-18T18:09:59.441Z,95.60
2017-11-18T18:12:27.640Z,95.40
2017-11-18T18:14:55.078Z,95.40
2017-11-18T18:17:22.532Z,94.90
2017-11-18T18:19:50.728Z,94.90
2017-11-18T18:22:18.171Z,95.00
2017-11-18T18:24:46.359Z,95.10
2017-11-18T18:27:13.806Z,95.10
2017-11-18T18:29:41.254Z,94.70
2017-11-18T18:32:09.470Z,93.80
2017-11-18T18:34:36.908Z,93.80
2017-11-18T18:37:04.356Z,93.80
2017-11-18T18:39:31.816Z,93.90
2017-11-18T18:41:59.270Z,95.00
2017-11-18T18:44:26.759Z,95.10
2017-11-18T18:46:54.192Z,94.80
2017-11-18T18:49:21.639Z,94.60
2017-11-18T18:51:49.127Z,94.90
2017-11-18T18:54:16.551Z,94.20
2017-11-18T18:56:44.757Z,95.30
2017-11-18T18:59:12.194Z,95.20
2017-11-18T19:01:39.642Z,94.40
2017-11-18T19:04:07.840Z,94.90
2017-11-18T19:09:09.198Z,95.60
2017-11-18T19:11:36.858Z,95.40
2017-11-18T19:14:04.302Z,94.30
2017-11-18T19:16:32.509Z,94.80
2017-11-18T19:18:59.962Z,94.70
2017-11-18T19:21:27.406Z,94.90
2017-11-18T19:23:54.868Z,94.60
2017-11-18T19:26:22.313Z,94.90
2017-11-18T19:28:49.776Z,95.60
2017-11-18T19:31:17.242Z,95.70
2017-11-18T19:33:44.698Z,95.80
2017-11-18T19:36:12.147Z,95.50
2017-11-18T19:38:39.598Z,96.10
2017-11-18T19:41:07.789Z,96.20
2017-11-18T19:43:35.246Z,96.20
2017-11-18T19:46:02.714Z,95.90
2017-11-18T19:48:30.175Z,95.90
2017-11-18T19:50:57.629Z,95.80
2017-11-18T19:53:25.084Z,94.70
2017-11-18T19:55:52.544Z,94.40
2017-11-18T19:58:20.033Z,95.70
2017-11-18T20:00:47.466Z,95.80
2017-11-18T20:03:14.914Z,95.30
2017-11-18T20:05:42.488Z,95.40
2017-11-18T20:08:10.028Z,94.70
2017-11-18T20:10:37.499Z,95.30
2017-11-18T20:13:04.989Z,95.40
2017-11-18T20:15:32.448Z,94.20
2017-11-18T20:17:59.898Z,93.90
2017-11-18T20:20:27.341Z,94.20
2017-11-18T20:22:54.832Z,94.60
2017-11-18T20:25:22.247Z,94.60
2017-11-18T20:27:49.718Z,94.20
2017-11-18T20:30:17.195Z,93.40
2017-11-18T20:32:44.655Z,93.00
2017-11-18T20:35:12.097Z,93.20
2017-11-18T20:37:39.560Z,92.90
2017-11-18T20:40:07.006Z,93.10
2017-11-18T20:42:34.470Z,93.30
2017-11-18T20:45:01.927Z,93.10
2017-11-18T20:47:29.369Z,93.50
2017-11-18T20:49:56.830Z,93.30
2017-11-18T20:52:24.289Z,93.20
2017-11-18T20:54:51.803Z,93.10
2017-11-18T20:57:19.256Z,93.50
2017-11-18T20:59:46.707Z,93.80
2017-11-18T21:02:14.164Z,93.60
2017-11-18T21:04:41.729Z,93.50
2017-11-18T21:07:09.172Z,94.00
2017-11-18T21:09:37.073Z,94.20
2017-11-18T21:12:04.511Z,94.00
2017-11-18T21:14:31.969Z,94.20
2017-11-18T21:16:59.410Z,94.30
2017-11-18T21:19:26.866Z,93.70
2017-11-18T21:21:54.317Z,93.60
2017-11-18T21:24:21.758Z,93.90
2017-11-18T21:26:49.196Z,93.90
2017-11-18T21:29:16.663Z,94.30
2017-11-18T21:31:44.124Z,94.20
2017-11-18T21:34:11.580Z,94.90
2017-11-18T21:36:39.039Z,94.70
2017-11-18T21:39:06.499Z,94.60
2017-11-18T21:41:33.967Z,94.20
2017-11-18T21:44:01.414Z,93.90
2017-11-18T21:46:28.876Z,94.00
2017-11-18T21:48:56.330Z,94.60
2017-11-18T21:51:23.805Z,94.60
2017-11-18T21:53:51.280Z,94.40
2017-11-18T21:56:18.739Z,94.40
2017-11-18T21:58:46.245Z,94.70
2017-11-18T22:01:13.736Z,94.50
2017-11-18T22:03:41.190Z,95.60
2017-11-18T22:06:08.658Z,96.00
2017-11-18T22:08:36.111Z,95.70
2017-11-18T22:11:03.578Z,95.40
2017-11-18T22:13:31.035Z,95.80
2017-11-18T22:15:58.482Z,95.60
2017-11-18T22:18:25.955Z,95.10
2017-11-18T22:20:53.419Z,95.20
2017-11-18T22:23:21.895Z,94.60
2017-11-18T22:25:49.354Z,94.60
2017-11-18T22:28:16.854Z,94.40
2017-11-18T22:30:45.096Z,94.00
2017-11-18T22:33:12.553Z,94.00
2017-11-18T22:35:39.984Z,93.80
2017-11-18T22:38:07.434Z,94.10
2017-11-18T22:40:34.908Z,93.80
2017-11-18T22:43:02.356Z,93.40
2017-11-18T22:45:29.820Z,93.30
2017-11-18T22:47:57.259Z,93.40
2017-11-18T22:50:24.690Z,93.40
2017-11-18T22:52:52.127Z,93.50
2017-11-18T22:55:20.395Z,94.10
2017-11-18T22:57:47.832Z,94.10
2017-11-18T23:00:15.284Z,94.10
2017-11-18T23:02:42.714Z,94.10
2017-11-18T23:05:10.151Z,93.80
2017-11-18T23:07:37.592Z,94.10
2017-11-18T23:10:05.803Z,94.00
2017-11-18T23:12:33.237Z,94.00
2017-11-18T23:15:00.686Z,94.20
2017-11-18T23:17:28.891Z,93.80
2017-11-18T23:19:56.400Z,93.80
2017-11-18T23:22:23.854Z,93.70
2017-11-18T23:24:51.879Z,93.60
2017-11-18T23:27:19.315Z,93.30
2017-11-18T23:29:46.782Z,93.50
2017-11-18T23:32:14.258Z,93.30
2017-11-18T23:34:41.709Z,93.50
2017-11-18T23:37:09.160Z,93.60
2017-11-18T23:39:37.506Z,93.70
2017-11-18T23:42:05.730Z,93.50
2017-11-18T23:44:33.159Z,93.50
2017-11-18T23:47:00.617Z,93.50
2017-11-18T23:49:28.107Z,93.10
2017-11-18T23:51:55.579Z,93.60
2017-11-18T23:54:23.044Z,93.70
2017-11-18T23:56:50.486Z,93.60
2017-11-18T23:59:17.946Z,93.70
